Time;durP1;ratioP1;P1;durP2;ratioP2;P2;SDS_P1;SDS_P2;PMS_P1;PMS_P2;Temp;Humidity;BMP_temperature;BMP_pressure;BME280_temperature;BME280_humidity;BME280_pressure;Samples;Min_cycle;Max_cycle;Signal;HPM_P1;HPM_P2
2024/02/18 00:00:44;;;;;;;10.20;5.43;;;10.70;99.90;;;;;;5040181;28;20631;-72
2024/02/18 00:03:09;;;;;;;4.77;4.37;;;10.60;99.90;;;;;;5039553;28;20776;-72
2024/02/18 00:05:35;;;;;;;7.77;4.47;;;10.50;99.90;;;;;;5017907;28;20238;-74
2024/02/18 00:08:01;;;;;;;5.20;4.70;;;10.50;99.90;;;;;;5040245;28;20245;-73
2024/02/18 00:10:27;;;;;;;4.50;3.83;;;10.60;99.90;;;;;;5034506;28;20453;-73
2024/02/18 00:12:53;;;;;;;8.07;4.50;;;10.60;99.90;;;;;;5037824;28;20285;-73
2024/02/18 00:15:18;;;;;;;7.23;4.70;;;10.60;99.90;;;;;;5035450;28;20299;-73
2024/02/18 00:17:44;;;;;;;5.63;4.10;;;10.50;99.90;;;;;;5039003;28;20217;-73
2024/02/18 00:20:15;;;;;;;7.63;4.53;;;10.40;99.90;;;;;;5039059;28;20304;-73
2024/02/18 00:22:41;;;;;;;6.20;4.60;;;10.30;99.90;;;;;;5034627;28;20216;-74
2024/02/18 00:25:07;;;;;;;6.80;5.07;;;10.10;99.90;;;;;;5038314;28;20455;-71
2024/02/18 00:27:33;;;;;;;7.37;5.30;;;10.00;99.90;;;;;;5037196;28;20462;-72
2024/02/18 00:29:59;;;;;;;7.87;4.53;;;10.10;99.90;;;;;;5037952;28;20549;-74
2024/02/18 00:32:25;;;;;;;8.17;5.13;;;10.20;99.90;;;;;;5019398;28;20537;-74
2024/02/18 00:34:51;;;;;;;7.60;5.30;;;10.20;99.90;;;;;;5038606;28;20498;-73
2024/02/18 00:37:19;;;;;;;7.57;5.80;;;10.30;99.90;;;;;;5034013;28;20216;-73
2024/02/18 00:39:45;;;;;;;9.00;5.53;;;10.20;99.90;;;;;;5040340;28;20219;-73
2024/02/18 00:42:11;;;;;;;9.87;6.20;;;10.10;99.90;;;;;;5022075;28;20465;-73
2024/02/18 00:44:37;;;;;;;7.50;5.07;;;10.00;99.90;;;;;;5035775;28;20232;-74
2024/02/18 00:47:03;;;;;;;7.47;5.17;;;10.00;99.90;;;;;;5020562;28;20244;-72
2024/02/18 00:49:29;;;;;;;7.83;5.83;;;10.00;99.90;;;;;;5051476;28;20475;-73
2024/02/18 00:51:55;;;;;;;12.27;4.30;;;10.00;99.90;;;;;;5038499;28;20471;-74
2024/02/18 00:54:21;;;;;;;8.20;4.83;;;10.20;99.90;;;;;;5035635;28;20512;-73
2024/02/18 00:56:47;;;;;;;8.53;5.07;;;10.20;99.90;;;;;;5038391;28;20227;-73
2024/02/18 00:59:19;;;;;;;10.80;5.47;;;10.20;99.90;;;;;;5036744;28;20226;-74
2024/02/18 01:01:44;;;;;;;7.63;5.50;;;10.30;99.90;;;;;;5038151;28;20461;-73
2024/02/18 01:04:10;;;;;;;9.30;5.03;;;10.30;99.90;;;;;;5038582;28;20468;-73
2024/02/18 01:06:36;;;;;;;7.40;5.37;;;10.20;99.90;;;;;;5035516;28;20220;-73
2024/02/18 01:09:02;;;;;;;7.97;5.87;;;10.10;99.90;;;;;;5038222;28;20223;-72
2024/02/18 01:11:31;;;;;;;7.53;5.23;;;10.00;99.90;;;;;;5031473;28;20473;-74
2024/02/18 01:13:56;;;;;;;8.13;5.07;;;10.10;99.90;;;;;;5019945;28;20269;-73
2024/02/18 01:16:22;;;;;;;7.53;5.97;;;10.10;99.90;;;;;;5032657;28;20474;-74
2024/02/18 01:18:49;;;;;;;7.80;5.30;;;10.10;99.90;;;;;;5020553;28;20239;-72
2024/02/18 01:21:16;;;;;;;6.23;5.23;;;10.10;99.90;;;;;;5037111;28;20216;-73
2024/02/18 01:23:42;;;;;;;5.93;4.70;;;10.10;99.90;;;;;;5037263;28;20997;-74
2024/02/18 01:26:08;;;;;;;7.30;5.60;;;10.10;99.90;;;;;;5035596;28;20458;-73
2024/02/18 01:28:34;;;;;;;8.87;4.83;;;10.10;99.90;;;;;;5034132;28;20472;-73
2024/02/18 01:31:00;;;;;;;7.30;5.20;;;10.10;99.90;;;;;;5037388;28;20465;-73
2024/02/18 01:33:26;;;;;;;7.07;4.60;;;10.10;99.90;;;;;;5032742;28;20211;-73
2024/02/18 01:35:52;;;;;;;10.40;5.57;;;10.10;99.90;;;;;;5039280;28;20469;-72
2024/02/18 01:38:18;;;;;;;6.23;4.87;;;10.00;99.90;;;;;;5033201;28;20223;-72
2024/02/18 01:40:44;;;;;;;7.00;5.27;;;10.00;99.90;;;;;;5051984;28;20454;-74
2024/02/18 01:43:09;;;;;;;6.00;4.73;;;10.00;99.90;;;;;;5036426;28;20211;-73
2024/02/18 01:45:35;;;;;;;6.23;4.80;;;10.00;99.90;;;;;;5032047;28;20209;-73
2024/02/18 01:48:01;;;;;;;6.50;4.70;;;10.00;99.90;;;;;;5051423;28;20212;-73
2024/02/18 01:50:28;;;;;;;6.27;5.07;;;10.00;99.90;;;;;;5031305;28;20212;-74
2024/02/18 01:52:54;;;;;;;7.60;4.73;;;10.00;99.90;;;;;;5036316;28;20462;-74
2024/02/18 01:55:22;;;;;;;6.53;5.00;;;10.00;99.90;;;;;;5034044;28;20459;-73
2024/02/18 01:57:48;;;;;;;7.00;4.50;;;9.90;99.90;;;;;;5035123;28;20911;-72
2024/02/18 02:00:16;;;;;;;5.77;4.77;;;9.90;99.90;;;;;;5033804;28;20463;-74
2024/02/18 02:02:45;;;;;;;5.10;4.20;;;9.90;99.90;;;;;;5036106;28;20458;-74
2024/02/18 02:05:15;;;;;;;5.67;4.17;;;9.90;99.90;;;;;;5037748;28;20524;-73
2024/02/18 02:07:42;;;;;;;5.87;4.30;;;9.80;99.90;;;;;;5032881;28;20990;-72
2024/02/18 02:10:11;;;;;;;7.10;4.43;;;9.80;99.90;;;;;;5036329;28;20516;-73
2024/02/18 02:12:43;;;;;;;6.10;4.60;;;9.80;99.90;;;;;;5034354;28;20461;-74
2024/02/18 02:15:10;;;;;;;6.23;4.30;;;9.80;99.90;;;;;;5036855;28;20508;-72
2024/02/18 02:17:39;;;;;;;7.23;4.50;;;9.80;99.90;;;;;;5048653;28;20981;-74
2024/02/18 02:20:09;;;;;;;9.03;5.03;;;9.80;99.90;;;;;;5039394;28;20463;-73
2024/02/18 02:22:35;;;;;;;5.47;4.43;;;9.70;99.90;;;;;;5033252;28;20535;-72
2024/02/18 02:25:01;;;;;;;7.90;4.10;;;9.60;99.90;;;;;;5039921;28;20478;-74
2024/02/18 02:27:34;;;;;;;4.67;4.20;;;9.50;99.90;;;;;;5035316;28;20462;-74
2024/02/18 02:30:03;;;;;;;6.20;3.97;;;9.60;99.90;;;;;;5055041;28;20478;-73
2024/02/18 02:32:29;;;;;;;4.30;3.80;;;9.60;99.90;;;;;;5035841;28;20479;-74
2024/02/18 02:34:54;;;;;;;8.10;4.70;;;9.60;99.90;;;;;;5055844;28;21018;-74
2024/02/18 02:37:20;;;;;;;7.30;3.73;;;9.60;99.90;;;;;;5036500;28;20220;-74
2024/02/18 02:39:46;;;;;;;5.63;3.43;;;9.50;99.90;;;;;;5040285;28;20690;-73
2024/02/18 02:42:12;;;;;;;7.90;4.30;;;9.60;99.90;;;;;;5038998;28;20302;-73
2024/02/18 02:44:38;;;;;;;5.73;4.27;;;9.60;99.90;;;;;;5038513;28;20545;-74
2024/02/18 02:47:04;;;;;;;6.50;4.40;;;9.50;99.90;;;;;;5024455;28;20265;-72
2024/02/18 02:49:30;;;;;;;6.07;4.33;;;9.50;99.90;;;;;;5020286;28;20234;-72
2024/02/18 02:51:55;;;;;;;6.70;4.33;;;9.50;99.90;;;;;;5039004;28;20216;-74
2024/02/18 02:54:21;;;;;;;5.60;3.73;;;9.50;99.90;;;;;;5035789;28;20553;-74
2024/02/18 02:56:47;;;;;;;5.07;4.30;;;9.50;99.90;;;;;;5040030;28;20220;-74
2024/02/18 02:59:12;;;;;;;4.40;3.70;;;9.50;99.90;;;;;;5025892;28;20707;-74
2024/02/18 03:01:38;;;;;;;6.37;4.00;;;9.50;99.90;;;;;;5036210;28;20732;-74
2024/02/18 03:04:04;;;;;;;6.37;4.73;;;9.40;99.90;;;;;;5038957;28;20208;-72
2024/02/18 03:06:30;;;;;;;5.93;4.57;;;9.40;99.90;;;;;;5034095;28;20218;-74
2024/02/18 03:08:56;;;;;;;7.53;4.43;;;9.40;99.90;;;;;;5038465;28;20470;-74
2024/02/18 03:11:21;;;;;;;6.53;4.30;;;9.40;99.90;;;;;;5036201;28;20229;-74
2024/02/18 03:13:48;;;;;;;4.97;3.83;;;9.40;99.90;;;;;;5040300;28;20219;-74
2024/02/18 03:16:14;;;;;;;7.20;5.20;;;9.30;99.90;;;;;;5037495;28;20216;-72
2024/02/18 03:18:40;;;;;;;5.10;3.60;;;9.40;99.90;;;;;;5038905;28;20480;-74
2024/02/18 03:21:06;;;;;;;6.27;4.20;;;9.30;99.90;;;;;;5041198;28;20555;-74
2024/02/18 03:23:32;;;;;;;6.10;3.93;;;9.30;99.90;;;;;;5024046;28;20512;-74
2024/02/18 03:25:58;;;;;;;6.77;4.40;;;9.20;99.90;;;;;;5039868;28;20234;-74
2024/02/18 03:28:25;;;;;;;7.13;5.90;;;9.10;99.90;;;;;;5037231;28;20263;-74
2024/02/18 03:30:52;;;;;;;6.47;5.00;;;9.20;99.90;;;;;;5019715;28;20446;-72
2024/02/18 03:33:18;;;;;;;6.77;5.37;;;9.20;99.90;;;;;;5036318;28;20439;-74
2024/02/18 03:35:44;;;;;;;6.30;5.20;;;9.20;99.90;;;;;;5038888;28;20438;-74
2024/02/18 03:38:10;;;;;;;8.93;5.20;;;9.20;99.90;;;;;;5041265;28;20501;-74
2024/02/18 03:40:36;;;;;;;6.53;5.30;;;9.20;99.90;;;;;;5037966;28;20494;-74
2024/02/18 03:43:04;;;;;;;6.60;4.90;;;9.20;99.90;;;;;;5021857;28;20223;-74
2024/02/18 03:45:30;;;;;;;6.67;5.13;;;9.20;99.90;;;;;;5035336;28;20316;-74
2024/02/18 03:47:56;;;;;;;7.30;5.40;;;9.20;99.90;;;;;;5039943;28;20482;-73
2024/02/18 03:50:22;;;;;;;7.40;5.33;;;9.20;99.90;;;;;;5037484;28;20214;-72
2024/02/18 03:52:48;;;;;;;9.57;5.57;;;9.20;99.90;;;;;;5041610;28;20219;-73
2024/02/18 03:55:14;;;;;;;8.07;5.50;;;9.20;99.90;;;;;;5037981;28;20311;-73
2024/02/18 03:57:41;;;;;;;7.53;5.20;;;9.20;99.90;;;;;;5037269;28;20346;-74
2024/02/18 04:00:10;;;;;;;7.67;4.50;;;9.20;99.90;;;;;;5021981;28;20509;-74
2024/02/18 04:02:40;;;;;;;9.73;5.03;;;9.10;99.90;;;;;;5035919;28;20991;-73
2024/02/18 04:05:09;;;;;;;7.07;5.50;;;8.90;99.90;;;;;;5035657;28;20549;-73
2024/02/18 04:07:35;;;;;;;11.63;5.80;;;8.80;99.90;;;;;;5033863;28;20481;-72
2024/02/18 04:10:04;;;;;;;8.67;5.60;;;8.80;99.90;;;;;;5039416;28;21090;-74
2024/02/18 04:12:31;;;;;;;7.30;5.93;;;8.90;99.90;;;;;;5051114;28;20709;-72
2024/02/18 04:14:56;;;;;;;5.67;5.07;;;8.90;99.90;;;;;;5039962;28;20484;-73
2024/02/18 04:17:23;;;;;;;9.10;5.90;;;8.80;99.90;;;;;;5038291;28;20455;-73
2024/02/18 04:19:49;;;;;;;8.37;5.40;;;8.70;99.90;;;;;;5042554;28;20793;-73
2024/02/18 04:22:15;;;;;;;8.20;6.40;;;8.80;99.90;;;;;;5036867;28;20454;-74
2024/02/18 04:24:40;;;;;;;7.20;5.37;;;8.90;99.90;;;;;;5036533;28;20215;-72
2024/02/18 04:27:10;;;;;;;5.23;4.30;;;8.90;99.90;;;;;;5039613;28;20319;-73
2024/02/18 04:29:36;;;;;;;7.00;5.63;;;8.80;99.90;;;;;;5050740;28;20220;-73
2024/02/18 04:32:03;;;;;;;6.97;5.33;;;8.80;99.90;;;;;;5036897;28;20462;-73
2024/02/18 04:34:29;;;;;;;9.27;5.50;;;8.80;99.90;;;;;;5035649;28;20478;-73
2024/02/18 04:36:55;;;;;;;8.20;5.53;;;8.80;99.90;;;;;;5039747;28;20467;-72
2024/02/18 04:39:21;;;;;;;9.50;5.30;;;8.80;99.90;;;;;;5035319;28;20220;-73
2024/02/18 04:41:46;;;;;;;9.40;5.77;;;8.80;99.90;;;;;;5039091;28;20530;-74
2024/02/18 04:44:12;;;;;;;7.17;5.60;;;8.80;99.90;;;;;;5022580;28;20219;-73
2024/02/18 04:46:38;;;;;;;5.87;4.80;;;8.80;99.90;;;;;;5021826;28;20220;-74
2024/02/18 04:49:04;;;;;;;9.47;5.40;;;8.90;99.90;;;;;;5022890;28;20303;-73
2024/02/18 04:51:30;;;;;;;8.47;5.30;;;8.80;99.90;;;;;;5021056;28;20690;-73
2024/02/18 04:53:55;;;;;;;6.87;5.70;;;8.80;99.90;;;;;;5038211;28;20250;-72
2024/02/18 04:56:21;;;;;;;7.43;5.47;;;8.70;99.90;;;;;;5031364;28;20471;-72
2024/02/18 04:58:48;;;;;;;7.47;5.13;;;8.70;99.90;;;;;;5022852;28;20224;-73
2024/02/18 05:01:13;;;;;;;7.00;4.43;;;8.60;99.90;;;;;;5037532;28;20976;-73
2024/02/18 05:03:41;;;;;;;10.33;5.53;;;8.70;99.90;;;;;;5035311;28;20452;-74
2024/02/18 05:06:10;;;;;;;6.70;5.00;;;8.70;99.90;;;;;;5020328;28;20599;-73
2024/02/18 05:08:36;;;;;;;7.33;5.20;;;8.80;99.90;;;;;;5048191;28;20595;-73
2024/02/18 05:11:03;;;;;;;7.07;5.13;;;8.80;99.90;;;;;;5038879;28;20459;-74
2024/02/18 05:13:29;;;;;;;6.27;4.80;;;8.80;99.90;;;;;;5036037;28;20458;-74
2024/02/18 05:15:56;;;;;;;6.80;5.20;;;8.80;99.90;;;;;;5039069;28;20459;-73
2024/02/18 05:18:22;;;;;;;6.97;5.00;;;8.80;99.90;;;;;;5033234;28;20984;-74
2024/02/18 05:20:48;;;;;;;7.73;5.00;;;8.80;99.90;;;;;;5040779;28;20463;-73
2024/02/18 05:23:14;;;;;;;7.57;5.20;;;8.80;99.90;;;;;;5038526;28;20454;-73
2024/02/18 05:25:40;;;;;;;9.37;5.70;;;8.80;99.90;;;;;;5035329;28;20473;-73
2024/02/18 05:28:06;;;;;;;6.70;5.17;;;8.70;99.90;;;;;;5038112;28;20353;-73
2024/02/18 05:30:32;;;;;;;8.93;5.30;;;8.70;99.90;;;;;;5021463;28;20450;-74
2024/02/18 05:32:58;;;;;;;8.20;5.00;;;8.70;99.90;;;;;;5037862;28;20548;-73
2024/02/18 05:35:24;;;;;;;7.47;5.60;;;8.60;99.90;;;;;;5033797;28;20227;-73
2024/02/18 05:37:50;;;;;;;7.53;5.33;;;8.60;99.90;;;;;;5035824;28;20219;-72
2024/02/18 05:40:15;;;;;;;9.83;6.37;;;8.70;99.90;;;;;;5038664;28;20212;-73
2024/02/18 05:42:41;;;;;;;8.87;5.87;;;8.60;99.90;;;;;;5033930;28;20469;-74
2024/02/18 05:45:07;;;;;;;7.47;5.40;;;8.60;99.90;;;;;;5037950;28;20212;-73
2024/02/18 05:47:33;;;;;;;8.77;5.80;;;8.60;99.90;;;;;;5032634;28;20299;-73
2024/02/18 05:49:59;;;;;;;7.23;5.37;;;8.60;99.90;;;;;;5035471;28;20858;-73
2024/02/18 05:52:24;;;;;;;9.03;6.23;;;8.60;99.90;;;;;;5048375;28;20298;-74
2024/02/18 05:54:50;;;;;;;6.67;5.10;;;8.50;99.90;;;;;;5039911;28;20220;-72
2024/02/18 05:57:15;;;;;;;7.50;4.60;;;8.50;99.90;;;;;;5036398;28;20222;-73
2024/02/18 05:59:41;;;;;;;7.10;5.10;;;8.50;99.90;;;;;;5053973;28;20231;-74
2024/02/18 06:02:07;;;;;;;6.50;5.53;;;8.50;99.90;;;;;;5021313;28;20211;-73
2024/02/18 06:04:32;;;;;;;8.37;5.93;;;8.50;99.90;;;;;;5034754;28;20629;-73
2024/02/18 06:06:58;;;;;;;8.57;5.23;;;8.50;99.90;;;;;;5037271;28;20775;-72
2024/02/18 06:09:24;;;;;;;6.60;5.03;;;8.50;99.90;;;;;;5034353;28;20724;-73
2024/02/18 06:11:51;;;;;;;8.07;5.00;;;8.50;99.90;;;;;;5018666;28;20212;-71
2024/02/18 06:14:17;;;;;;;7.07;5.07;;;8.50;99.90;;;;;;5036654;28;20539;-73
2024/02/18 06:16:43;;;;;;;10.10;5.90;;;8.50;99.90;;;;;;5035166;28;20462;-73
2024/02/18 06:19:09;;;;;;;6.80;4.97;;;8.50;99.90;;;;;;5036059;28;20860;-73
2024/02/18 06:21:35;;;;;;;8.97;5.90;;;8.50;99.90;;;;;;5019076;28;20288;-72
2024/02/18 06:24:04;;;;;;;10.10;6.60;;;8.50;99.90;;;;;;5052522;28;20463;-72
2024/02/18 06:26:29;;;;;;;9.10;6.80;;;8.40;99.90;;;;;;5033067;28;20224;-73
2024/02/18 06:28:55;;;;;;;7.20;6.03;;;8.40;99.90;;;;;;5052367;28;20462;-73
2024/02/18 06:31:22;;;;;;;10.13;6.67;;;8.40;99.90;;;;;;5035808;28;20215;-74
2024/02/18 06:33:47;;;;;;;9.73;5.90;;;8.40;99.90;;;;;;5038477;28;20489;-73
2024/02/18 06:36:14;;;;;;;7.43;5.37;;;8.40;99.90;;;;;;5038382;28;20549;-73
2024/02/18 06:38:45;;;;;;;7.30;4.90;;;8.40;99.90;;;;;;5035169;28;20287;-73
2024/02/18 06:41:11;;;;;;;6.90;4.70;;;8.40;99.90;;;;;;5036258;28;20477;-72
2024/02/18 06:43:37;;;;;;;9.17;6.10;;;8.40;99.90;;;;;;5048271;28;20470;-73
2024/02/18 06:46:06;;;;;;;8.47;5.90;;;8.40;99.90;;;;;;5033915;28;20513;-74
2024/02/18 06:48:31;;;;;;;8.60;5.57;;;8.40;99.90;;;;;;5032321;28;20291;-73
2024/02/18 06:50:57;;;;;;;8.90;5.50;;;8.40;99.90;;;;;;5051184;28;20600;-73
2024/02/18 06:53:23;;;;;;;8.60;5.90;;;8.40;99.90;;;;;;5033651;28;20283;-74
2024/02/18 06:55:49;;;;;;;9.00;6.53;;;8.40;99.90;;;;;;5038079;28;20458;-73
2024/02/18 06:58:19;;;;;;;8.37;5.60;;;8.40;99.90;;;;;;5034781;28;20559;-73
2024/02/18 07:00:44;;;;;;;9.20;6.50;;;8.40;99.90;;;;;;5031851;28;20228;-73
2024/02/18 07:03:10;;;;;;;11.80;6.80;;;8.40;99.90;;;;;;5034413;28;21011;-72
2024/02/18 07:05:36;;;;;;;10.97;6.17;;;8.40;99.90;;;;;;5032818;28;20216;-73
2024/02/18 07:08:04;;;;;;;9.47;6.67;;;8.40;99.90;;;;;;5036705;28;20481;-74
2024/02/18 07:10:29;;;;;;;8.97;6.80;;;8.30;99.90;;;;;;5034345;28;20212;-74
2024/02/18 07:12:55;;;;;;;12.10;7.83;;;8.30;99.90;;;;;;5041309;28;20458;-74
2024/02/18 07:15:21;;;;;;;8.83;6.57;;;8.30;99.90;;;;;;5037529;28;20700;-75
2024/02/18 07:17:47;;;;;;;9.30;7.10;;;8.30;99.90;;;;;;5042582;28;20608;-74
2024/02/18 07:20:14;;;;;;;10.60;7.00;;;8.30;99.90;;;;;;5037070;28;20319;-74
2024/02/18 07:22:43;;;;;;;10.20;6.90;;;8.30;99.90;;;;;;5037326;28;20223;-74
2024/02/18 07:25:09;;;;;;;12.30;7.57;;;8.30;99.90;;;;;;5024328;28;20454;-74
2024/02/18 07:27:35;;;;;;;9.73;6.90;;;8.30;99.90;;;;;;5037677;28;20470;-73
2024/02/18 07:30:03;;;;;;;9.20;6.77;;;8.30;99.90;;;;;;5041023;28;20524;-74
2024/02/18 07:32:28;;;;;;;9.57;6.33;;;8.20;99.90;;;;;;5037693;28;20216;-73
2024/02/18 07:34:54;;;;;;;11.00;6.70;;;8.20;99.90;;;;;;5038659;28;20967;-73
2024/02/18 07:37:20;;;;;;;14.20;7.80;;;8.20;99.90;;;;;;5038886;28;20208;-74
2024/02/18 07:39:46;;;;;;;9.30;5.80;;;8.30;99.90;;;;;;5040101;28;20232;-71
2024/02/18 07:42:11;;;;;;;11.40;7.27;;;8.30;99.90;;;;;;5039690;28;20470;-73
2024/02/18 07:44:37;;;;;;;15.03;7.33;;;8.20;99.90;;;;;;5024665;28;20219;-74
2024/02/18 07:47:03;;;;;;;9.67;6.20;;;8.30;99.90;;;;;;5041275;28;20374;-73
2024/02/18 07:49:29;;;;;;;8.67;6.07;;;8.30;99.90;;;;;;5049308;28;20501;-74
2024/02/18 07:51:55;;;;;;;12.90;6.40;;;8.30;99.90;;;;;;5039294;28;20461;-74
2024/02/18 07:54:20;;;;;;;16.50;7.47;;;8.30;99.90;;;;;;5026466;28;20216;-74
2024/02/18 07:56:48;;;;;;;9.43;6.60;;;8.30;99.90;;;;;;5040976;28;20996;-74
2024/02/18 07:59:16;;;;;;;10.73;6.77;;;8.30;99.90;;;;;;5040108;28;20307;-74
2024/02/18 08:01:43;;;;;;;12.13;7.50;;;8.10;99.90;;;;;;5040348;28;20535;-74
2024/02/18 08:04:08;;;;;;;10.50;6.77;;;8.20;99.90;;;;;;5040737;28;20474;-74
2024/02/18 08:06:34;;;;;;;10.10;6.30;;;8.20;99.90;;;;;;5017648;28;20455;-74
2024/02/18 08:08:59;;;;;;;7.27;5.60;;;8.20;99.90;;;;;;5042614;28;20227;-74
2024/02/18 08:11:25;;;;;;;10.90;6.20;;;8.20;99.90;;;;;;5034688;28;20247;-75
2024/02/18 08:13:51;;;;;;;8.83;5.50;;;8.20;99.90;;;;;;5045846;28;20223;-74
2024/02/18 08:16:18;;;;;;;9.80;5.60;;;8.20;99.90;;;;;;5046490;28;20763;-74
2024/02/18 08:18:44;;;;;;;9.03;5.40;;;8.30;99.90;;;;;;5045067;28;20221;-74
2024/02/18 08:21:10;;;;;;;9.77;6.40;;;8.30;99.90;;;;;;5042391;28;20470;-76
2024/02/18 08:23:35;;;;;;;9.23;5.50;;;8.30;99.90;;;;;;5034506;28;20264;-76
2024/02/18 08:26:01;;;;;;;11.83;5.83;;;8.30;99.90;;;;;;5038697;28;20223;-74
2024/02/18 08:28:27;;;;;;;8.97;5.63;;;8.30;99.90;;;;;;5021059;28;20226;-76
2024/02/18 08:30:53;;;;;;;11.23;6.23;;;8.20;99.90;;;;;;5040729;28;20567;-76
2024/02/18 08:33:19;;;;;;;11.60;6.23;;;8.20;99.90;;;;;;5027854;28;20464;-76
2024/02/18 08:35:44;;;;;;;7.97;5.93;;;8.30;99.90;;;;;;5034678;28;20250;-76
2024/02/18 08:38:10;;;;;;;14.03;5.67;;;8.30;99.90;;;;;;5038301;28;20216;-76
2024/02/18 08:40:36;;;;;;;9.40;5.27;;;8.40;99.90;;;;;;5052118;28;20222;-76
2024/02/18 08:43:03;;;;;;;9.37;6.23;;;8.30;99.90;;;;;;5043209;28;20294;-76
2024/02/18 08:45:30;;;;;;;12.40;7.00;;;8.20;99.90;;;;;;5036856;28;20262;-76
2024/02/18 08:47:56;;;;;;;9.40;6.13;;;8.20;99.90;;;;;;5041898;28;20456;-76
2024/02/18 08:50:22;;;;;;;7.73;5.50;;;8.30;99.90;;;;;;5036575;28;20466;-78
2024/02/18 08:52:48;;;;;;;12.10;7.00;;;8.20;99.90;;;;;;5036534;28;20450;-75
2024/02/18 08:55:13;;;;;;;10.63;6.70;;;8.30;99.90;;;;;;5025559;28;20465;-76
2024/02/18 08:57:39;;;;;;;13.13;7.43;;;8.30;99.90;;;;;;5033738;28;20222;-76
2024/02/18 09:00:07;;;;;;;9.67;6.20;;;8.30;99.90;;;;;;5026182;28;20311;-74
2024/02/18 09:02:32;;;;;;;11.43;6.80;;;8.30;99.90;;;;;;5035868;28;20222;-75
2024/02/18 09:04:59;;;;;;;11.57;7.10;;;8.30;99.90;;;;;;5037832;28;20455;-75
2024/02/18 09:07:26;;;;;;;12.17;7.17;;;8.30;99.90;;;;;;5036750;28;20283;-77
2024/02/18 09:09:52;;;;;;;9.27;6.67;;;8.30;99.90;;;;;;5038682;28;20469;-76
2024/02/18 09:12:18;;;;;;;9.27;6.20;;;8.40;99.90;;;;;;5053109;28;20474;-76
2024/02/18 09:14:43;;;;;;;9.57;6.00;;;8.40;99.90;;;;;;5018269;28;20231;-74
2024/02/18 09:17:09;;;;;;;9.20;6.40;;;8.40;99.90;;;;;;5037181;28;20879;-72
2024/02/18 09:19:35;;;;;;;9.50;6.23;;;8.40;99.90;;;;;;5045667;28;20705;-74
2024/02/18 09:22:01;;;;;;;10.20;5.80;;;8.40;99.90;;;;;;5045546;28;20224;-74
2024/02/18 09:24:27;;;;;;;9.33;6.03;;;8.40;99.90;;;;;;5040396;28;20220;-73
2024/02/18 09:26:53;;;;;;;7.83;6.60;;;8.50;99.90;;;;;;5044451;28;20465;-73
2024/02/18 09:29:19;;;;;;;8.57;5.60;;;8.60;99.90;;;;;;5043905;28;20224;-73
2024/02/18 09:31:47;;;;;;;8.47;5.27;;;8.60;99.90;;;;;;5024480;28;20236;-74
2024/02/18 09:34:12;;;;;;;8.77;5.57;;;8.60;99.90;;;;;;5040147;28;20470;-73
2024/02/18 09:36:38;;;;;;;7.40;4.80;;;8.70;99.90;;;;;;5043287;28;20458;-74
2024/02/18 09:39:04;;;;;;;6.57;4.60;;;8.60;99.90;;;;;;5043221;28;20223;-73
2024/02/18 09:41:31;;;;;;;8.73;5.67;;;8.70;99.90;;;;;;5029067;28;20211;-73
2024/02/18 09:44:05;;;;;;;8.53;5.40;;;8.70;99.90;;;;;;5059266;28;20685;-73
2024/02/18 09:46:34;;;;;;;7.33;5.17;;;8.80;99.90;;;;;;5039026;28;20504;-74
2024/02/18 09:49:00;;;;;;;7.00;5.03;;;8.80;99.90;;;;;;5062010;28;20459;-73
2024/02/18 09:51:27;;;;;;;9.83;5.07;;;8.80;99.90;;;;;;5024069;28;20457;-73
2024/02/18 09:53:54;;;;;;;8.97;5.70;;;8.80;99.90;;;;;;5042155;28;20541;-73
2024/02/18 09:56:20;;;;;;;7.73;5.90;;;8.80;99.90;;;;;;5046060;28;20473;-73
2024/02/18 09:58:46;;;;;;;7.43;5.90;;;8.80;99.90;;;;;;5023710;28;20458;-73
2024/02/18 10:01:15;;;;;;;8.67;6.40;;;8.90;99.90;;;;;;5042680;28;20212;-73
2024/02/18 10:03:41;;;;;;;10.63;5.60;;;8.90;99.90;;;;;;5025713;28;20240;-74
2024/02/18 10:06:07;;;;;;;7.43;4.90;;;8.90;99.90;;;;;;5043843;28;20852;-74
2024/02/18 10:08:54;;;;;;;6.60;5.60;;;8.90;99.90;;;;;;5039686;28;20573;-74
2024/02/18 10:11:21;;;;;;;9.33;5.97;;;9.00;99.90;;;;;;5028381;28;20253;-74
2024/02/18 10:13:48;;;;;;;11.60;6.77;;;9.00;99.90;;;;;;5041657;28;20451;-73
2024/02/18 10:16:17;;;;;;;9.27;6.47;;;9.10;99.90;;;;;;5027182;28;20455;-73
2024/02/18 10:18:43;;;;;;;8.03;6.17;;;9.10;99.90;;;;;;5030896;28;20454;-74
2024/02/18 10:21:11;;;;;;;12.07;6.20;;;9.10;99.90;;;;;;5036712;28;20457;-72
2024/02/18 10:23:39;;;;;;;7.87;6.10;;;9.10;99.90;;;;;;5044011;28;21019;-74
2024/02/18 10:26:08;;;;;;;7.60;6.10;;;9.10;99.90;;;;;;5045637;28;20525;-73
2024/02/18 10:28:38;;;;;;;11.40;6.90;;;9.10;99.90;;;;;;5042330;28;20485;-74
2024/02/18 10:31:07;;;;;;;9.80;6.47;;;9.20;99.90;;;;;;5027391;28;20450;-73
2024/02/18 10:33:36;;;;;;;9.10;6.83;;;9.20;99.90;;;;;;5040702;28;20473;-73
2024/02/18 10:36:13;;;;;;;9.20;6.60;;;9.30;99.90;;;;;;5043269;28;20475;-74
2024/02/18 10:38:52;;;;;;;9.23;7.30;;;9.30;99.90;;;;;;5041799;28;20462;-74
2024/02/18 10:41:21;;;;;;;7.67;6.50;;;9.30;99.90;;;;;;5044331;28;20553;-74
2024/02/18 10:43:51;;;;;;;7.90;5.73;;;9.30;99.90;;;;;;5060168;28;20442;-74
2024/02/18 10:46:23;;;;;;;7.80;6.10;;;9.40;99.90;;;;;;5047331;28;20481;-72
2024/02/18 10:49:03;;;;;;;10.53;6.77;;;9.40;99.90;;;;;;5044792;28;20454;-74
2024/02/18 10:51:37;;;;;;;7.20;5.00;;;9.40;99.90;;;;;;5046202;28;20485;-75
2024/02/18 10:54:15;;;;;;;10.40;5.73;;;9.50;99.90;;;;;;5050082;28;20453;-74
2024/02/18 10:56:40;;;;;;;9.50;5.53;;;9.50;99.90;;;;;;5026050;28;20458;-74
2024/02/18 10:59:35;;;;;;;9.33;6.40;;;9.50;99.90;;;;;;5044194;28;21029;-73
2024/02/18 11:02:10;;;;;;;8.37;5.40;;;9.60;99.90;;;;;;5049152;28;20226;-73
2024/02/18 11:04:38;;;;;;;11.30;6.80;;;9.60;99.90;;;;;;5030825;28;20466;-73
2024/02/18 11:07:05;;;;;;;9.60;6.37;;;9.60;99.90;;;;;;5035496;28;20466;-73
2024/02/18 11:09:32;;;;;;;6.87;5.37;;;9.70;99.90;;;;;;5046257;28;20474;-74
2024/02/18 11:12:00;;;;;;;10.40;5.40;;;9.70;99.90;;;;;;5048667;28;20500;-74
2024/02/18 11:14:27;;;;;;;7.63;5.30;;;9.70;99.90;;;;;;5030598;28;21025;-74
2024/02/18 11:16:54;;;;;;;5.60;4.80;;;9.70;99.90;;;;;;5047181;28;20500;-73
2024/02/18 11:19:21;;;;;;;6.93;4.70;;;9.80;99.90;;;;;;5048605;28;20470;-74
2024/02/18 11:21:50;;;;;;;5.33;4.40;;;9.80;99.90;;;;;;5049132;28;20446;-75
2024/02/18 11:24:16;;;;;;;6.10;4.27;;;9.80;99.90;;;;;;5044239;28;20524;-74
2024/02/18 11:26:43;;;;;;;4.67;3.90;;;9.80;99.90;;;;;;5046552;28;20454;-73
2024/02/18 11:29:09;;;;;;;4.50;3.57;;;9.90;99.90;;;;;;5049231;28;20701;-72
2024/02/18 11:31:35;;;;;;;4.37;3.67;;;9.90;99.90;;;;;;5044669;28;20461;-75
2024/02/18 11:34:01;;;;;;;5.63;4.33;;;9.90;99.90;;;;;;5033301;28;20694;-74
2024/02/18 11:36:27;;;;;;;6.80;4.23;;;9.90;99.90;;;;;;5062749;28;20624;-73
2024/02/18 11:38:56;;;;;;;3.73;3.20;;;10.00;99.90;;;;;;5047673;28;20295;-74
2024/02/18 11:41:28;;;;;;;3.70;3.10;;;10.00;99.90;;;;;;5041581;28;20220;-74
2024/02/18 11:43:55;;;;;;;3.90;3.33;;;10.00;99.90;;;;;;5048541;28;20462;-73
2024/02/18 11:46:24;;;;;;;5.37;3.40;;;10.00;99.90;;;;;;5045113;28;20474;-74
2024/02/18 11:48:51;;;;;;;4.00;2.70;;;10.00;99.90;;;;;;5043723;28;20478;-74
2024/02/18 11:51:17;;;;;;;4.17;3.37;;;10.00;99.90;;;;;;5045904;28;20458;-74
2024/02/18 11:53:42;;;;;;;5.60;3.30;;;10.00;99.90;;;;;;5047610;28;20515;-74
2024/02/18 11:56:10;;;;;;;4.80;3.50;;;10.00;99.90;;;;;;5048512;28;20223;-74
2024/02/18 11:58:35;;;;;;;9.30;3.73;;;10.10;99.90;;;;;;5046361;28;20266;-73
2024/02/18 12:01:05;;;;;;;7.63;3.20;;;10.10;99.90;;;;;;5045628;28;20462;-74
2024/02/18 12:03:34;;;;;;;3.93;3.53;;;10.00;99.90;;;;;;5046756;28;20294;-74
2024/02/18 12:06:04;;;;;;;4.73;3.73;;;10.00;99.90;;;;;;5046960;28;20520;-75
2024/02/18 12:08:30;;;;;;;8.63;3.80;;;9.90;99.90;;;;;;5042129;28;20482;-75
2024/02/18 12:11:00;;;;;;;5.87;3.80;;;9.90;99.90;;;;;;5061253;28;20786;-74
2024/02/18 12:13:35;;;;;;;8.60;3.53;;;10.00;99.90;;;;;;5045254;28;20508;-75
2024/02/18 12:16:05;;;;;;;4.53;3.40;;;10.00;99.90;;;;;;5030415;28;20455;-73
2024/02/18 12:18:31;;;;;;;5.23;3.63;;;10.00;99.90;;;;;;5043760;28;20454;-74
2024/02/18 12:20:57;;;;;;;4.60;3.70;;;10.10;99.90;;;;;;5047153;28;20461;-74
2024/02/18 12:23:23;;;;;;;3.40;3.10;;;10.10;99.90;;;;;;5044063;28;20242;-74
2024/02/18 12:25:50;;;;;;;5.90;3.60;;;10.10;99.90;;;;;;5046298;28;20261;-74
2024/02/18 12:28:16;;;;;;;4.70;3.17;;;10.10;99.90;;;;;;5045421;28;20477;-74
2024/02/18 12:30:45;;;;;;;4.63;3.67;;;10.10;99.90;;;;;;5043175;28;20462;-74
2024/02/18 12:33:11;;;;;;;6.73;3.20;;;10.10;99.90;;;;;;5057288;28;20465;-74
2024/02/18 12:35:37;;;;;;;3.33;2.90;;;10.10;99.90;;;;;;5027407;28;20978;-75
2024/02/18 12:38:05;;;;;;;6.80;4.20;;;10.10;99.90;;;;;;5045923;28;20481;-73
2024/02/18 12:40:32;;;;;;;4.67;3.10;;;10.10;99.90;;;;;;5028884;28;20447;-75
2024/02/18 12:42:58;;;;;;;5.20;4.17;;;10.10;99.90;;;;;;5045332;28;20500;-75
2024/02/18 12:45:25;;;;;;;4.20;3.73;;;10.10;99.90;;;;;;5030908;28;21126;-75
2024/02/18 12:47:55;;;;;;;5.13;3.57;;;10.20;99.90;;;;;;5043161;28;20977;-74
2024/02/18 12:50:23;;;;;;;5.77;3.30;;;10.20;99.90;;;;;;5047096;28;20527;-74